sensor_id;sensor_type;location;lat;lon;timestamp;P1;durP1;ratioP1;P2;durP2;ratioP2
44536;SDS011;30245;51.966;6.292;2022-12-07T00:03:46;7.23;;;5.07;;
44536;SDS011;30245;51.966;6.292;2022-12-07T00:06:13;9.77;;;7.43;;
44536;SDS011;30245;51.966;6.292;2022-12-07T00:08:40;5.63;;;5.13;;
44536;SDS011;30245;51.966;6.292;2022-12-07T00:11:10;6.07;;;4.43;;
44536;SDS011;30245;51.966;6.292;2022-12-07T00:13:36;6.77;;;4.47;;
44536;SDS011;30245;51.966;6.292;2022-12-07T00:16:03;7.37;;;5.63;;
44536;SDS011;30245;51.966;6.292;2022-12-07T00:18:34;5.27;;;4.77;;
44536;SDS011;30245;51.966;6.292;2022-12-07T00:21:01;5.27;;;3.57;;
44536;SDS011;30245;51.966;6.292;2022-12-07T00:23:31;4.87;;;3.97;;
44536;SDS011;30245;51.966;6.292;2022-12-07T00:26:02;4.97;;;3.87;;
44536;SDS011;30245;51.966;6.292;2022-12-07T00:28:32;6.00;;;3.63;;
44536;SDS011;30245;51.966;6.292;2022-12-07T00:31:02;3.77;;;3.13;;
44536;SDS011;30245;51.966;6.292;2022-12-07T00:33:29;6.27;;;4.20;;
44536;SDS011;30245;51.966;6.292;2022-12-07T00:35:56;5.30;;;3.47;;
44536;SDS011;30245;51.966;6.292;2022-12-07T00:38:22;4.73;;;3.30;;
44536;SDS011;30245;51.966;6.292;2022-12-07T00:40:58;4.50;;;3.40;;
44536;SDS011;30245;51.966;6.292;2022-12-07T00:43:25;7.07;;;4.10;;
44536;SDS011;30245;51.966;6.292;2022-12-07T00:45:51;4.77;;;3.53;;
44536;SDS011;30245;51.966;6.292;2022-12-07T00:48:17;5.70;;;3.17;;
44536;SDS011;30245;51.966;6.292;2022-12-07T00:50:43;3.67;;;3.13;;
44536;SDS011;30245;51.966;6.292;2022-12-07T00:53:09;7.47;;;2.97;;
44536;SDS011;30245;51.966;6.292;2022-12-07T00:55:35;5.73;;;3.40;;
44536;SDS011;30245;51.966;6.292;2022-12-07T00:58:02;4.83;;;3.17;;
44536;SDS011;30245;51.966;6.292;2022-12-07T01:00:27;5.73;;;4.10;;
44536;SDS011;30245;51.966;6.292;2022-12-07T01:02:53;3.50;;;3.20;;
44536;SDS011;30245;51.966;6.292;2022-12-07T01:05:19;11.23;;;3.50;;
44536;SDS011;30245;51.966;6.292;2022-12-07T01:07:44;4.80;;;3.37;;
44536;SDS011;30245;51.966;6.292;2022-12-07T01:10:11;5.07;;;3.37;;
44536;SDS011;30245;51.966;6.292;2022-12-07T01:12:37;3.67;;;2.47;;
44536;SDS011;30245;51.966;6.292;2022-12-07T01:15:04;4.10;;;2.40;;
44536;SDS011;30245;51.966;6.292;2022-12-07T01:17:30;5.37;;;2.87;;
44536;SDS011;30245;51.966;6.292;2022-12-07T01:19:55;5.30;;;3.53;;
44536;SDS011;30245;51.966;6.292;2022-12-07T01:22:21;2.70;;;2.00;;
44536;SDS011;30245;51.966;6.292;2022-12-07T01:24:46;3.60;;;1.90;;
44536;SDS011;30245;51.966;6.292;2022-12-07T01:27:12;3.40;;;2.00;;
44536;SDS011;30245;51.966;6.292;2022-12-07T01:29:38;4.10;;;2.90;;
44536;SDS011;30245;51.966;6.292;2022-12-07T01:32:04;4.57;;;1.87;;
44536;SDS011;30245;51.966;6.292;2022-12-07T01:34:30;3.00;;;2.10;;
44536;SDS011;30245;51.966;6.292;2022-12-07T01:36:55;3.20;;;2.13;;
44536;SDS011;30245;51.966;6.292;2022-12-07T01:39:21;4.17;;;1.87;;
44536;SDS011;30245;51.966;6.292;2022-12-07T01:41:47;4.20;;;1.60;;
44536;SDS011;30245;51.966;6.292;2022-12-07T01:44:17;2.23;;;1.70;;
44536;SDS011;30245;51.966;6.292;2022-12-07T01:47:00;3.17;;;1.50;;
44536;SDS011;30245;51.966;6.292;2022-12-07T01:49:33;3.63;;;2.27;;
44536;SDS011;30245;51.966;6.292;2022-12-07T01:54:44;7.35;;;2.65;;
44536;SDS011;30245;51.966;6.292;2022-12-07T01:57:13;3.67;;;1.10;;
44536;SDS011;30245;51.966;6.292;2022-12-07T01:59:40;3.38;;;1.73;;
44536;SDS011;30245;51.966;6.292;2022-12-07T02:02:10;2.30;;;1.27;;
44536;SDS011;30245;51.966;6.292;2022-12-07T02:04:42;2.43;;;1.30;;
44536;SDS011;30245;51.966;6.292;2022-12-07T02:07:08;3.07;;;1.70;;
44536;SDS011;30245;51.966;6.292;2022-12-07T02:09:34;3.03;;;1.37;;
44536;SDS011;30245;51.966;6.292;2022-12-07T02:11:59;2.50;;;1.77;;
44536;SDS011;30245;51.966;6.292;2022-12-07T02:14:25;5.10;;;2.03;;
44536;SDS011;30245;51.966;6.292;2022-12-07T02:19:58;2.83;;;1.80;;
44536;SDS011;30245;51.966;6.292;2022-12-07T02:22:47;5.27;;;1.43;;
44536;SDS011;30245;51.966;6.292;2022-12-07T02:25:48;2.33;;;1.50;;
44536;SDS011;30245;51.966;6.292;2022-12-07T02:28:47;4.23;;;1.40;;
44536;SDS011;30245;51.966;6.292;2022-12-07T02:31:36;2.40;;;1.33;;
44536;SDS011;30245;51.966;6.292;2022-12-07T02:34:11;4.13;;;2.13;;
44536;SDS011;30245;51.966;6.292;2022-12-07T02:36:46;7.83;;;2.40;;
44536;SDS011;30245;51.966;6.292;2022-12-07T02:39:20;6.20;;;2.90;;
44536;SDS011;30245;51.966;6.292;2022-12-07T02:42:01;3.30;;;1.93;;
44536;SDS011;30245;51.966;6.292;2022-12-07T02:44:31;3.03;;;2.70;;
44536;SDS011;30245;51.966;6.292;2022-12-07T02:47:00;4.63;;;1.87;;
44536;SDS011;30245;51.966;6.292;2022-12-07T02:49:28;5.93;;;2.33;;
44536;SDS011;30245;51.966;6.292;2022-12-07T02:51:55;4.47;;;2.00;;
44536;SDS011;30245;51.966;6.292;2022-12-07T02:54:21;4.30;;;1.90;;
44536;SDS011;30245;51.966;6.292;2022-12-07T02:56:48;4.27;;;1.80;;
44536;SDS011;30245;51.966;6.292;2022-12-07T02:59:27;3.17;;;1.93;;
44536;SDS011;30245;51.966;6.292;2022-12-07T03:03:13;4.15;;;1.42;;
44536;SDS011;30245;51.966;6.292;2022-12-07T03:05:12;4.00;;;2.40;;
44536;SDS011;30245;51.966;6.292;2022-12-07T03:13:02;3.90;;;1.45;;
44536;SDS011;30245;51.966;6.292;2022-12-07T03:18:01;3.37;;;2.00;;
44536;SDS011;30245;51.966;6.292;2022-12-07T03:20:28;2.70;;;2.07;;
44536;SDS011;30245;51.966;6.292;2022-12-07T03:22:56;3.27;;;1.63;;
44536;SDS011;30245;51.966;6.292;2022-12-07T03:25:24;7.90;;;2.55;;
44536;SDS011;30245;51.966;6.292;2022-12-07T03:27:55;3.20;;;1.70;;
44536;SDS011;30245;51.966;6.292;2022-12-07T03:30:34;4.17;;;1.93;;
44536;SDS011;30245;51.966;6.292;2022-12-07T03:33:10;6.87;;;2.60;;
44536;SDS011;30245;51.966;6.292;2022-12-07T03:35:42;3.03;;;1.60;;
44536;SDS011;30245;51.966;6.292;2022-12-07T03:38:14;4.17;;;2.30;;
44536;SDS011;30245;51.966;6.292;2022-12-07T03:40:47;4.20;;;2.30;;
44536;SDS011;30245;51.966;6.292;2022-12-07T03:43:19;4.73;;;2.10;;
44536;SDS011;30245;51.966;6.292;2022-12-07T03:45:51;5.00;;;1.80;;
44536;SDS011;30245;51.966;6.292;2022-12-07T03:49:04;5.83;;;1.93;;
44536;SDS011;30245;51.966;6.292;2022-12-07T03:51:24;2.77;;;1.37;;
44536;SDS011;30245;51.966;6.292;2022-12-07T03:54:00;1.77;;;1.23;;
44536;SDS011;30245;51.966;6.292;2022-12-07T03:56:46;3.10;;;1.40;;
44536;SDS011;30245;51.966;6.292;2022-12-07T03:59:13;6.03;;;2.17;;
44536;SDS011;30245;51.966;6.292;2022-12-07T04:01:43;10.20;;;1.73;;
44536;SDS011;30245;51.966;6.292;2022-12-07T04:04:15;6.13;;;1.70;;
44536;SDS011;30245;51.966;6.292;2022-12-07T04:06:42;6.17;;;1.93;;
44536;SDS011;30245;51.966;6.292;2022-12-07T04:09:07;3.17;;;1.23;;
44536;SDS011;30245;51.966;6.292;2022-12-07T04:11:33;2.03;;;0.93;;
44536;SDS011;30245;51.966;6.292;2022-12-07T04:13:58;2.93;;;1.40;;
44536;SDS011;30245;51.966;6.292;2022-12-07T04:16:42;2.80;;;1.70;;
44536;SDS011;30245;51.966;6.292;2022-12-07T04:19:08;3.50;;;1.40;;
44536;SDS011;30245;51.966;6.292;2022-12-07T04:21:34;3.07;;;1.37;;
44536;SDS011;30245;51.966;6.292;2022-12-07T04:23:59;3.07;;;1.47;;
44536;SDS011;30245;51.966;6.292;2022-12-07T04:26:25;6.10;;;2.03;;
44536;SDS011;30245;51.966;6.292;2022-12-07T04:28:50;2.07;;;0.70;;
44536;SDS011;30245;51.966;6.292;2022-12-07T04:31:16;2.40;;;0.80;;
44536;SDS011;30245;51.966;6.292;2022-12-07T04:33:42;4.47;;;1.13;;
44536;SDS011;30245;51.966;6.292;2022-12-07T04:36:07;4.77;;;1.47;;
44536;SDS011;30245;51.966;6.292;2022-12-07T04:38:33;4.17;;;1.47;;
44536;SDS011;30245;51.966;6.292;2022-12-07T04:40:59;3.50;;;1.17;;
44536;SDS011;30245;51.966;6.292;2022-12-07T04:43:30;5.00;;;0.70;;
44536;SDS011;30245;51.966;6.292;2022-12-07T04:45:55;4.13;;;1.07;;
44536;SDS011;30245;51.966;6.292;2022-12-07T04:48:21;2.60;;;1.13;;
44536;SDS011;30245;51.966;6.292;2022-12-07T04:50:47;6.53;;;1.87;;
44536;SDS011;30245;51.966;6.292;2022-12-07T04:53:14;1.50;;;0.70;;
44536;SDS011;30245;51.966;6.292;2022-12-07T04:55:40;6.20;;;1.30;;
44536;SDS011;30245;51.966;6.292;2022-12-07T04:58:06;4.13;;;1.40;;
44536;SDS011;30245;51.966;6.292;2022-12-07T05:00:31;2.40;;;1.43;;
44536;SDS011;30245;51.966;6.292;2022-12-07T05:02:57;3.17;;;1.20;;
44536;SDS011;30245;51.966;6.292;2022-12-07T05:05:23;4.13;;;0.93;;
44536;SDS011;30245;51.966;6.292;2022-12-07T05:07:49;3.90;;;0.80;;
44536;SDS011;30245;51.966;6.292;2022-12-07T05:10:15;2.00;;;1.00;;
44536;SDS011;30245;51.966;6.292;2022-12-07T05:12:41;2.83;;;0.77;;
44536;SDS011;30245;51.966;6.292;2022-12-07T05:15:06;7.57;;;1.13;;
44536;SDS011;30245;51.966;6.292;2022-12-07T05:17:32;2.50;;;0.90;;
44536;SDS011;30245;51.966;6.292;2022-12-07T05:19:58;1.60;;;0.80;;
44536;SDS011;30245;51.966;6.292;2022-12-07T05:22:23;3.33;;;0.87;;
44536;SDS011;30245;51.966;6.292;2022-12-07T05:24:53;2.60;;;1.10;;
44536;SDS011;30245;51.966;6.292;2022-12-07T05:27:19;3.63;;;0.93;;
44536;SDS011;30245;51.966;6.292;2022-12-07T05:29:44;1.90;;;0.77;;
44536;SDS011;30245;51.966;6.292;2022-12-07T05:32:10;2.33;;;0.70;;
44536;SDS011;30245;51.966;6.292;2022-12-07T05:34:36;4.77;;;1.20;;
44536;SDS011;30245;51.966;6.292;2022-12-07T05:37:01;2.40;;;1.13;;
44536;SDS011;30245;51.966;6.292;2022-12-07T05:39:27;3.27;;;0.80;;
44536;SDS011;30245;51.966;6.292;2022-12-07T05:41:53;7.17;;;1.77;;
44536;SDS011;30245;51.966;6.292;2022-12-07T05:44:37;5.77;;;1.20;;
44536;SDS011;30245;51.966;6.292;2022-12-07T05:47:03;2.77;;;1.20;;
44536;SDS011;30245;51.966;6.292;2022-12-07T05:49:28;2.60;;;1.03;;
44536;SDS011;30245;51.966;6.292;2022-12-07T05:51:54;3.73;;;0.90;;
44536;SDS011;30245;51.966;6.292;2022-12-07T05:54:19;4.13;;;0.90;;
44536;SDS011;30245;51.966;6.292;2022-12-07T05:56:45;1.90;;;1.00;;
44536;SDS011;30245;51.966;6.292;2022-12-07T05:59:11;4.73;;;1.17;;
44536;SDS011;30245;51.966;6.292;2022-12-07T06:01:52;3.03;;;0.90;;
44536;SDS011;30245;51.966;6.292;2022-12-07T06:04:23;5.23;;;1.07;;
44536;SDS011;30245;51.966;6.292;2022-12-07T06:06:51;1.85;;;0.93;;
44536;SDS011;30245;51.966;6.292;2022-12-07T06:09:17;1.80;;;0.70;;
44536;SDS011;30245;51.966;6.292;2022-12-07T06:11:44;3.47;;;1.07;;
44536;SDS011;30245;51.966;6.292;2022-12-07T06:14:28;8.57;;;1.40;;
44536;SDS011;30245;51.966;6.292;2022-12-07T06:16:54;3.77;;;1.27;;
44536;SDS011;30245;51.966;6.292;2022-12-07T06:19:20;2.73;;;1.40;;
44536;SDS011;30245;51.966;6.292;2022-12-07T06:21:45;3.73;;;0.93;;
44536;SDS011;30245;51.966;6.292;2022-12-07T06:24:11;3.53;;;1.73;;
44536;SDS011;30245;51.966;6.292;2022-12-07T06:26:39;2.63;;;1.63;;
44536;SDS011;30245;51.966;6.292;2022-12-07T06:29:04;2.77;;;1.20;;
44536;SDS011;30245;51.966;6.292;2022-12-07T06:31:30;2.70;;;1.33;;
44536;SDS011;30245;51.966;6.292;2022-12-07T06:33:57;3.37;;;1.50;;
44536;SDS011;30245;51.966;6.292;2022-12-07T06:36:27;4.30;;;1.20;;
44536;SDS011;30245;51.966;6.292;2022-12-07T06:38:53;2.60;;;1.50;;
44536;SDS011;30245;51.966;6.292;2022-12-07T06:41:19;3.03;;;1.33;;
44536;SDS011;30245;51.966;6.292;2022-12-07T06:43:46;2.10;;;0.90;;
44536;SDS011;30245;51.966;6.292;2022-12-07T06:46:12;4.30;;;0.90;;
44536;SDS011;30245;51.966;6.292;2022-12-07T06:48:39;2.23;;;1.37;;
44536;SDS011;30245;51.966;6.292;2022-12-07T06:51:04;2.67;;;1.20;;
44536;SDS011;30245;51.966;6.292;2022-12-07T06:53:30;8.37;;;1.23;;
44536;SDS011;30245;51.966;6.292;2022-12-07T06:55:55;4.80;;;1.43;;
44536;SDS011;30245;51.966;6.292;2022-12-07T06:58:21;5.23;;;1.30;;
44536;SDS011;30245;51.966;6.292;2022-12-07T07:00:47;3.03;;;1.03;;
44536;SDS011;30245;51.966;6.292;2022-12-07T07:03:13;2.23;;;0.77;;
44536;SDS011;30245;51.966;6.292;2022-12-07T07:05:39;3.77;;;1.20;;
44536;SDS011;30245;51.966;6.292;2022-12-07T07:08:04;2.80;;;1.30;;
44536;SDS011;30245;51.966;6.292;2022-12-07T07:10:30;3.73;;;1.13;;
44536;SDS011;30245;51.966;6.292;2022-12-07T07:12:56;4.67;;;1.00;;
44536;SDS011;30245;51.966;6.292;2022-12-07T07:15:21;7.53;;;1.20;;
44536;SDS011;30245;51.966;6.292;2022-12-07T07:17:47;5.90;;;1.30;;
44536;SDS011;30245;51.966;6.292;2022-12-07T07:20:12;2.03;;;1.13;;
44536;SDS011;30245;51.966;6.292;2022-12-07T07:22:38;3.07;;;1.57;;
44536;SDS011;30245;51.966;6.292;2022-12-07T07:25:04;6.87;;;1.03;;
44536;SDS011;30245;51.966;6.292;2022-12-07T07:27:29;3.43;;;0.97;;
44536;SDS011;30245;51.966;6.292;2022-12-07T07:29:55;3.30;;;0.90;;
44536;SDS011;30245;51.966;6.292;2022-12-07T07:32:20;3.00;;;0.80;;
44536;SDS011;30245;51.966;6.292;2022-12-07T07:34:47;2.40;;;0.90;;
44536;SDS011;30245;51.966;6.292;2022-12-07T07:37:13;3.07;;;0.63;;
44536;SDS011;30245;51.966;6.292;2022-12-07T07:39:38;3.43;;;0.90;;
44536;SDS011;30245;51.966;6.292;2022-12-07T07:42:04;1.97;;;0.70;;
44536;SDS011;30245;51.966;6.292;2022-12-07T07:44:30;4.93;;;0.80;;
44536;SDS011;30245;51.966;6.292;2022-12-07T07:46:56;2.30;;;1.17;;
44536;SDS011;30245;51.966;6.292;2022-12-07T07:49:21;5.83;;;1.30;;
44536;SDS011;30245;51.966;6.292;2022-12-07T07:51:47;1.70;;;0.87;;
44536;SDS011;30245;51.966;6.292;2022-12-07T07:54:12;4.07;;;0.83;;
44536;SDS011;30245;51.966;6.292;2022-12-07T07:56:38;4.47;;;2.40;;
44536;SDS011;30245;51.966;6.292;2022-12-07T07:59:03;1.60;;;0.77;;
44536;SDS011;30245;51.966;6.292;2022-12-07T08:01:29;1.53;;;0.77;;
44536;SDS011;30245;51.966;6.292;2022-12-07T08:03:54;4.03;;;0.90;;
44536;SDS011;30245;51.966;6.292;2022-12-07T08:06:20;3.30;;;0.70;;
44536;SDS011;30245;51.966;6.292;2022-12-07T08:08:46;1.83;;;1.10;;
44536;SDS011;30245;51.966;6.292;2022-12-07T08:11:11;3.23;;;0.80;;
44536;SDS011;30245;51.966;6.292;2022-12-07T08:13:37;2.63;;;0.63;;
44536;SDS011;30245;51.966;6.292;2022-12-07T08:16:03;2.40;;;0.90;;
44536;SDS011;30245;51.966;6.292;2022-12-07T08:18:29;2.43;;;0.90;;
44536;SDS011;30245;51.966;6.292;2022-12-07T08:20:58;6.07;;;1.37;;
44536;SDS011;30245;51.966;6.292;2022-12-07T08:23:28;2.50;;;1.53;;
44536;SDS011;30245;51.966;6.292;2022-12-07T08:25:54;6.80;;;2.00;;
44536;SDS011;30245;51.966;6.292;2022-12-07T08:28:19;3.60;;;1.37;;
44536;SDS011;30245;51.966;6.292;2022-12-07T08:30:45;5.90;;;1.03;;
44536;SDS011;30245;51.966;6.292;2022-12-07T08:33:11;3.33;;;0.77;;
44536;SDS011;30245;51.966;6.292;2022-12-07T08:35:37;2.93;;;0.83;;
44536;SDS011;30245;51.966;6.292;2022-12-07T08:38:03;3.90;;;1.17;;
44536;SDS011;30245;51.966;6.292;2022-12-07T08:40:29;2.97;;;0.70;;
44536;SDS011;30245;51.966;6.292;2022-12-07T08:42:55;3.53;;;0.93;;
44536;SDS011;30245;51.966;6.292;2022-12-07T08:45:21;3.53;;;0.50;;
44536;SDS011;30245;51.966;6.292;2022-12-07T08:47:49;2.07;;;0.60;;
44536;SDS011;30245;51.966;6.292;2022-12-07T08:50:18;4.17;;;0.80;;
44536;SDS011;30245;51.966;6.292;2022-12-07T08:52:44;3.73;;;0.53;;
44536;SDS011;30245;51.966;6.292;2022-12-07T08:55:16;6.03;;;1.07;;
44536;SDS011;30245;51.966;6.292;2022-12-07T08:57:41;1.70;;;0.50;;
44536;SDS011;30245;51.966;6.292;2022-12-07T09:00:08;1.87;;;0.73;;
44536;SDS011;30245;51.966;6.292;2022-12-07T09:02:34;2.70;;;0.60;;
44536;SDS011;30245;51.966;6.292;2022-12-07T09:05:00;3.43;;;0.40;;
44536;SDS011;30245;51.966;6.292;2022-12-07T09:07:25;2.43;;;0.67;;
44536;SDS011;30245;51.966;6.292;2022-12-07T09:09:52;2.10;;;0.30;;
44536;SDS011;30245;51.966;6.292;2022-12-07T09:12:17;2.33;;;0.40;;
44536;SDS011;30245;51.966;6.292;2022-12-07T09:14:43;4.07;;;0.40;;
44536;SDS011;30245;51.966;6.292;2022-12-07T09:17:09;1.23;;;0.40;;
44536;SDS011;30245;51.966;6.292;2022-12-07T09:19:38;4.50;;;0.47;;
44536;SDS011;30245;51.966;6.292;2022-12-07T09:22:04;2.70;;;0.60;;
44536;SDS011;30245;51.966;6.292;2022-12-07T09:24:30;6.70;;;0.70;;
44536;SDS011;30245;51.966;6.292;2022-12-07T09:26:57;3.50;;;0.83;;
44536;SDS011;30245;51.966;6.292;2022-12-07T09:29:22;4.70;;;0.50;;
44536;SDS011;30245;51.966;6.292;2022-12-07T09:31:48;2.37;;;0.40;;
44536;SDS011;30245;51.966;6.292;2022-12-07T09:34:14;1.90;;;0.40;;
44536;SDS011;30245;51.966;6.292;2022-12-07T09:36:39;2.30;;;0.40;;
44536;SDS011;30245;51.966;6.292;2022-12-07T09:39:05;2.77;;;0.67;;
44536;SDS011;30245;51.966;6.292;2022-12-07T09:41:31;3.30;;;0.63;;
44536;SDS011;30245;51.966;6.292;2022-12-07T09:44:03;2.33;;;0.50;;
44536;SDS011;30245;51.966;6.292;2022-12-07T09:46:33;4.80;;;0.67;;
44536;SDS011;30245;51.966;6.292;2022-12-07T09:49:02;0.77;;;0.40;;
44536;SDS011;30245;51.966;6.292;2022-12-07T09:51:28;3.07;;;0.40;;
44536;SDS011;30245;51.966;6.292;2022-12-07T09:53:54;1.90;;;0.30;;
44536;SDS011;30245;51.966;6.292;2022-12-07T09:56:22;1.40;;;0.20;;
44536;SDS011;30245;51.966;6.292;2022-12-07T09:58:50;1.80;;;0.20;;
44536;SDS011;30245;51.966;6.292;2022-12-07T10:01:23;2.63;;;0.97;;
44536;SDS011;30245;51.966;6.292;2022-12-07T10:03:50;4.23;;;0.87;;
44536;SDS011;30245;51.966;6.292;2022-12-07T10:06:17;2.50;;;0.30;;
44536;SDS011;30245;51.966;6.292;2022-12-07T10:08:43;3.57;;;0.60;;
44536;SDS011;30245;51.966;6.292;2022-12-07T10:11:09;1.60;;;0.50;;
44536;SDS011;30245;51.966;6.292;2022-12-07T10:19:17;2.10;;;0.40;;
44536;SDS011;30245;51.966;6.292;2022-12-07T10:22:06;3.40;;;0.77;;
44536;SDS011;30245;51.966;6.292;2022-12-07T10:24:34;2.23;;;0.27;;
44536;SDS011;30245;51.966;6.292;2022-12-07T10:26:59;3.80;;;0.40;;
44536;SDS011;30245;51.966;6.292;2022-12-07T10:34:38;2.05;;;0.40;;
44536;SDS011;30245;51.966;6.292;2022-12-07T10:42:17;1.93;;;0.50;;
44536;SDS011;30245;51.966;6.292;2022-12-07T10:44:46;1.13;;;0.30;;
44536;SDS011;30245;51.966;6.292;2022-12-07T10:47:29;2.83;;;0.30;;
44536;SDS011;30245;51.966;6.292;2022-12-07T10:55:53;2.20;;;0.20;;
44536;SDS011;30245;51.966;6.292;2022-12-07T11:01:51;1.52;;;0.20;;
44536;SDS011;30245;51.966;6.292;2022-12-07T11:04:33;2.10;;;0.30;;
44536;SDS011;30245;51.966;6.292;2022-12-07T11:07:14;1.03;;;0.30;;
44536;SDS011;30245;51.966;6.292;2022-12-07T11:10:02;3.00;;;0.83;;
44536;SDS011;30245;51.966;6.292;2022-12-07T11:12:43;1.73;;;0.40;;
44536;SDS011;30245;51.966;6.292;2022-12-07T11:15:24;1.90;;;0.20;;
44536;SDS011;30245;51.966;6.292;2022-12-07T11:18:11;2.70;;;0.40;;
44536;SDS011;30245;51.966;6.292;2022-12-07T11:34:59;4.43;;;0.87;;
44536;SDS011;30245;51.966;6.292;2022-12-07T11:37:34;2.13;;;0.50;;
44536;SDS011;30245;51.966;6.292;2022-12-07T11:45:41;1.23;;;0.30;;
44536;SDS011;30245;51.966;6.292;2022-12-07T11:48:14;1.43;;;0.40;;
44536;SDS011;30245;51.966;6.292;2022-12-07T11:50:54;4.00;;;0.50;;
44536;SDS011;30245;51.966;6.292;2022-12-07T12:06:40;3.43;;;0.30;;
44536;SDS011;30245;51.966;6.292;2022-12-07T12:12:27;1.87;;;0.27;;
44536;SDS011;30245;51.966;6.292;2022-12-07T12:14:46;1.80;;;0.63;;
44536;SDS011;30245;51.966;6.292;2022-12-07T12:20:42;2.87;;;0.40;;
44536;SDS011;30245;51.966;6.292;2022-12-07T12:23:13;1.33;;;0.30;;
44536;SDS011;30245;51.966;6.292;2022-12-07T12:25:45;5.20;;;0.50;;
44536;SDS011;30245;51.966;6.292;2022-12-07T12:28:24;1.07;;;0.17;;
44536;SDS011;30245;51.966;6.292;2022-12-07T12:31:04;1.75;;;0.50;;
44536;SDS011;30245;51.966;6.292;2022-12-07T12:33:31;1.37;;;0.20;;
44536;SDS011;30245;51.966;6.292;2022-12-07T12:51:45;2.93;;;0.70;;
44536;SDS011;30245;51.966;6.292;2022-12-07T12:56:46;0.60;;;0.20;;
44536;SDS011;30245;51.966;6.292;2022-12-07T13:01:55;3.67;;;0.27;;
44536;SDS011;30245;51.966;6.292;2022-12-07T13:04:51;1.07;;;0.20;;
44536;SDS011;30245;51.966;6.292;2022-12-07T13:13:01;3.20;;;0.30;;
44536;SDS011;30245;51.966;6.292;2022-12-07T13:20:59;3.53;;;0.20;;
44536;SDS011;30245;51.966;6.292;2022-12-07T13:26:05;1.40;;;0.25;;
44536;SDS011;30245;51.966;6.292;2022-12-07T13:28:43;4.70;;;0.43;;
44536;SDS011;30245;51.966;6.292;2022-12-07T13:33:46;2.07;;;0.60;;
44536;SDS011;30245;51.966;6.292;2022-12-07T13:36:22;2.80;;;0.40;;
44536;SDS011;30245;51.966;6.292;2022-12-07T13:38:51;4.40;;;0.80;;
44536;SDS011;30245;51.966;6.292;2022-12-07T13:41:19;4.33;;;0.30;;
44536;SDS011;30245;51.966;6.292;2022-12-07T13:43:55;2.13;;;0.30;;
44536;SDS011;30245;51.966;6.292;2022-12-07T13:46:33;2.23;;;0.30;;
44536;SDS011;30245;51.966;6.292;2022-12-07T13:51:55;3.50;;;0.68;;
44536;SDS011;30245;51.966;6.292;2022-12-07T13:55:11;5.13;;;0.77;;
44536;SDS011;30245;51.966;6.292;2022-12-07T13:57:40;2.40;;;0.30;;
44536;SDS011;30245;51.966;6.292;2022-12-07T14:00:13;2.67;;;0.20;;
44536;SDS011;30245;51.966;6.292;2022-12-07T14:05:27;3.37;;;0.80;;
44536;SDS011;30245;51.966;6.292;2022-12-07T14:08:31;2.43;;;0.60;;
44536;SDS011;30245;51.966;6.292;2022-12-07T14:16:00;1.80;;;0.40;;
44536;SDS011;30245;51.966;6.292;2022-12-07T14:18:28;3.13;;;0.70;;
44536;SDS011;30245;51.966;6.292;2022-12-07T14:21:04;6.23;;;1.63;;
44536;SDS011;30245;51.966;6.292;2022-12-07T14:23:43;5.80;;;1.20;;
44536;SDS011;30245;51.966;6.292;2022-12-07T14:26:19;6.97;;;2.07;;
44536;SDS011;30245;51.966;6.292;2022-12-07T14:28:45;6.33;;;0.87;;
44536;SDS011;30245;51.966;6.292;2022-12-07T14:31:16;3.33;;;0.70;;
44536;SDS011;30245;51.966;6.292;2022-12-07T14:33:43;4.67;;;1.00;;
44536;SDS011;30245;51.966;6.292;2022-12-07T14:36:09;6.73;;;1.23;;
44536;SDS011;30245;51.966;6.292;2022-12-07T14:38:36;8.40;;;0.93;;
44536;SDS011;30245;51.966;6.292;2022-12-07T14:41:01;4.30;;;0.90;;
44536;SDS011;30245;51.966;6.292;2022-12-07T14:43:46;2.10;;;0.40;;
44536;SDS011;30245;51.966;6.292;2022-12-07T14:46:12;4.57;;;0.40;;
44536;SDS011;30245;51.966;6.292;2022-12-07T14:48:37;3.37;;;0.30;;
44536;SDS011;30245;51.966;6.292;2022-12-07T14:51:03;2.93;;;0.40;;
44536;SDS011;30245;51.966;6.292;2022-12-07T14:53:31;1.17;;;0.57;;
44536;SDS011;30245;51.966;6.292;2022-12-07T14:56:00;4.33;;;0.40;;
44536;SDS011;30245;51.966;6.292;2022-12-07T14:58:26;3.50;;;0.50;;
44536;SDS011;30245;51.966;6.292;2022-12-07T15:00:51;3.00;;;0.20;;
44536;SDS011;30245;51.966;6.292;2022-12-07T15:03:17;3.23;;;0.50;;
44536;SDS011;30245;51.966;6.292;2022-12-07T15:05:43;1.73;;;0.37;;
44536;SDS011;30245;51.966;6.292;2022-12-07T15:08:10;1.57;;;0.23;;
44536;SDS011;30245;51.966;6.292;2022-12-07T15:10:37;3.85;;;0.20;;
44536;SDS011;30245;51.966;6.292;2022-12-07T15:13:04;2.07;;;0.20;;
44536;SDS011;30245;51.966;6.292;2022-12-07T15:15:48;2.50;;;0.20;;
44536;SDS011;30245;51.966;6.292;2022-12-07T15:18:15;0.90;;;0.20;;
44536;SDS011;30245;51.966;6.292;2022-12-07T15:20:43;1.93;;;0.50;;
44536;SDS011;30245;51.966;6.292;2022-12-07T15:23:09;0.90;;;0.20;;
44536;SDS011;30245;51.966;6.292;2022-12-07T15:25:36;2.07;;;0.20;;
44536;SDS011;30245;51.966;6.292;2022-12-07T15:28:01;1.30;;;0.20;;
44536;SDS011;30245;51.966;6.292;2022-12-07T15:30:27;1.27;;;0.50;;
44536;SDS011;30245;51.966;6.292;2022-12-07T15:32:53;1.23;;;0.20;;
44536;SDS011;30245;51.966;6.292;2022-12-07T15:35:19;1.93;;;0.30;;
44536;SDS011;30245;51.966;6.292;2022-12-07T15:37:45;1.93;;;0.43;;
44536;SDS011;30245;51.966;6.292;2022-12-07T15:40:11;3.13;;;0.43;;
44536;SDS011;30245;51.966;6.292;2022-12-07T15:42:37;0.67;;;0.20;;
44536;SDS011;30245;51.966;6.292;2022-12-07T15:45:04;5.07;;;0.30;;
44536;SDS011;30245;51.966;6.292;2022-12-07T15:47:31;1.73;;;0.27;;
44536;SDS011;30245;51.966;6.292;2022-12-07T15:50:02;5.07;;;0.50;;
44536;SDS011;30245;51.966;6.292;2022-12-07T15:52:29;2.17;;;0.90;;
44536;SDS011;30245;51.966;6.292;2022-12-07T15:54:55;3.60;;;0.93;;
44536;SDS011;30245;51.966;6.292;2022-12-07T15:57:21;3.83;;;0.50;;
44536;SDS011;30245;51.966;6.292;2022-12-07T15:59:46;1.60;;;0.33;;
44536;SDS011;30245;51.966;6.292;2022-12-07T16:02:12;2.23;;;0.70;;
44536;SDS011;30245;51.966;6.292;2022-12-07T16:04:37;3.00;;;1.10;;
44536;SDS011;30245;51.966;6.292;2022-12-07T16:07:03;4.17;;;0.67;;
44536;SDS011;30245;51.966;6.292;2022-12-07T16:09:29;3.07;;;0.77;;
44536;SDS011;30245;51.966;6.292;2022-12-07T16:11:54;1.57;;;0.57;;
44536;SDS011;30245;51.966;6.292;2022-12-07T16:14:20;3.60;;;1.10;;
44536;SDS011;30245;51.966;6.292;2022-12-07T16:16:46;2.60;;;0.63;;
44536;SDS011;30245;51.966;6.292;2022-12-07T16:19:12;2.57;;;0.70;;
44536;SDS011;30245;51.966;6.292;2022-12-07T16:21:37;1.47;;;0.50;;
44536;SDS011;30245;51.966;6.292;2022-12-07T16:24:03;4.17;;;1.27;;
44536;SDS011;30245;51.966;6.292;2022-12-07T16:26:30;3.97;;;1.17;;
44536;SDS011;30245;51.966;6.292;2022-12-07T16:28:56;3.97;;;1.07;;
44536;SDS011;30245;51.966;6.292;2022-12-07T16:31:23;3.57;;;0.60;;
44536;SDS011;30245;51.966;6.292;2022-12-07T16:33:51;2.63;;;0.70;;
44536;SDS011;30245;51.966;6.292;2022-12-07T16:36:19;3.45;;;0.40;;
44536;SDS011;30245;51.966;6.292;2022-12-07T16:38:46;1.60;;;0.93;;
44536;SDS011;30245;51.966;6.292;2022-12-07T16:41:12;2.40;;;0.50;;
44536;SDS011;30245;51.966;6.292;2022-12-07T16:43:38;1.97;;;0.50;;
44536;SDS011;30245;51.966;6.292;2022-12-07T16:46:04;5.70;;;0.53;;
44536;SDS011;30245;51.966;6.292;2022-12-07T16:48:30;1.30;;;0.50;;
44536;SDS011;30245;51.966;6.292;2022-12-07T16:50:56;7.63;;;0.70;;
44536;SDS011;30245;51.966;6.292;2022-12-07T16:53:22;1.73;;;0.57;;
44536;SDS011;30245;51.966;6.292;2022-12-07T16:55:49;4.47;;;0.90;;
44536;SDS011;30245;51.966;6.292;2022-12-07T16:58:15;2.67;;;0.50;;
44536;SDS011;30245;51.966;6.292;2022-12-07T17:00:42;3.10;;;0.70;;
44536;SDS011;30245;51.966;6.292;2022-12-07T17:03:08;1.00;;;0.27;;
44536;SDS011;30245;51.966;6.292;2022-12-07T17:05:41;1.63;;;0.30;;
44536;SDS011;30245;51.966;6.292;2022-12-07T17:08:07;0.73;;;0.30;;